createdAt,value
2023-03-16T00:01:11.961Z,99952.88
2023-03-16T00:03:38.615Z,99971.31
2023-03-16T00:06:07.611Z,99971.34
2023-03-16T00:08:35.581Z,99965.53
2023-03-16T00:11:02.985Z,99973.88
2023-03-16T00:13:32.661Z,99974.94
2023-03-16T00:16:07.823Z,99974.44
2023-03-16T00:18:41.660Z,99981.66
2023-03-16T00:21:11.097Z,99978.72
2023-03-16T00:23:40.547Z,99975.88
2023-03-16T00:26:09.155Z,99982.88
2023-03-16T00:28:39.022Z,99990.63
2023-03-16T00:31:12.023Z,99993.03
2023-03-16T00:33:43.925Z,99998.69
2023-03-16T00:36:13.959Z,99992.53
2023-03-16T00:38:45.357Z,99989.28
2023-03-16T00:41:14.424Z,99996.50
2023-03-16T00:43:43.920Z,99992.50
2023-03-16T00:46:12.872Z,99995.28
2023-03-16T00:48:42.762Z,99994.19
2023-03-16T00:51:19.731Z,99995.06
2023-03-16T00:53:47.541Z,99997.94
2023-03-16T00:56:14.397Z,100001.59
2023-03-16T00:58:43.237Z,99998.00
2023-03-16T01:01:18.969Z,99994.13
2023-03-16T01:03:46.119Z,99998.53
2023-03-16T01:06:17.436Z,99992.75
2023-03-16T01:08:44.811Z,99998.94
2023-03-16T01:11:18.532Z,100005.47
2023-03-16T01:13:49.465Z,100008.53
2023-03-16T01:16:23.445Z,99999.84
2023-03-16T01:18:50.187Z,99998.66
2023-03-16T01:21:16.762Z,99997.78
2023-03-16T01:23:44.346Z,100013.31
2023-03-16T01:26:11.856Z,100001.25
2023-03-16T01:28:39.047Z,100007.63
2023-03-16T01:31:10.617Z,100006.38
2023-03-16T01:33:38.287Z,100009.59
2023-03-16T01:36:08.899Z,100004.19
2023-03-16T01:38:38.138Z,100003.44
2023-03-16T01:41:05.935Z,100003.41
2023-03-16T01:43:37.607Z,100006.25
2023-03-16T01:46:07.360Z,100010.31
2023-03-16T01:48:40.033Z,100004.78
2023-03-16T01:51:13.771Z,100005.56
2023-03-16T01:53:47.246Z,100011.47
2023-03-16T01:56:20.285Z,100019.59
2023-03-16T01:58:51.166Z,100025.88
2023-03-16T02:01:20.574Z,100024.56
2023-03-16T02:03:47.315Z,100026.00
2023-03-16T02:06:23.136Z,100029.34
2023-03-16T02:08:50.713Z,100038.63
2023-03-16T02:11:22.545Z,100040.53
2023-03-16T02:13:52.878Z,100043.63
2023-03-16T02:16:23.971Z,100037.19
2023-03-16T02:18:51.597Z,100044.00
2023-03-16T02:21:54.677Z,100045.88
2023-03-16T02:24:21.890Z,100048.28
2023-03-16T02:27:14.102Z,100057.50
2023-03-16T02:29:46.656Z,100052.13
2023-03-16T02:32:14.698Z,100061.41
2023-03-16T02:34:46.114Z,100062.59
2023-03-16T02:37:12.962Z,100064.34
2023-03-16T02:39:44.857Z,100069.97
2023-03-16T02:42:18.637Z,100069.47
2023-03-16T02:44:55.051Z,100074.31
2023-03-16T02:47:33.383Z,100079.41
2023-03-16T02:50:00.247Z,100081.94
2023-03-16T02:52:26.796Z,100089.78
2023-03-16T02:54:53.351Z,100084.34
2023-03-16T02:57:19.940Z,100095.06
2023-03-16T02:59:49.070Z,100101.19
2023-03-16T03:02:21.055Z,100099.16
2023-03-16T03:04:50.440Z,100094.50
2023-03-16T03:07:19.433Z,100106.41
2023-03-16T03:09:48.718Z,100113.31
2023-03-16T03:12:15.440Z,100106.41
2023-03-16T03:14:42.060Z,100111.22
2023-03-16T03:17:10.155Z,100121.34
2023-03-16T03:19:41.489Z,100117.72
2023-03-16T03:22:08.179Z,100118.66
2023-03-16T03:24:35.165Z,100126.56
2023-03-16T03:27:05.819Z,100123.16
2023-03-16T03:29:36.211Z,100130.34
2023-03-16T03:32:08.558Z,100136.25
2023-03-16T03:34:37.556Z,100144.03
2023-03-16T03:37:06.341Z,100136.72
2023-03-16T03:39:40.413Z,100145.16
2023-03-16T03:42:09.420Z,100140.50
2023-03-16T03:44:38.697Z,100155.00
2023-03-16T03:47:10.746Z,100147.63
2023-03-16T03:49:37.365Z,100147.75
2023-03-16T03:52:06.203Z,100155.41
2023-03-16T03:54:35.548Z,100164.22
2023-03-16T03:57:02.085Z,100165.81
2023-03-16T03:59:31.032Z,100163.91
2023-03-16T04:02:02.503Z,100162.81
2023-03-16T04:04:31.434Z,100170.25
2023-03-16T04:07:00.517Z,100176.91
2023-03-16T04:09:27.115Z,100175.63
2023-03-16T04:11:53.730Z,100176.91
2023-03-16T04:14:22.599Z,100174.97
2023-03-16T04:16:49.203Z,100173.69
2023-03-16T04:19:15.834Z,100173.56
2023-03-16T04:21:47.218Z,100185.19
2023-03-16T04:24:18.931Z,100188.69
2023-03-16T04:26:48.294Z,100182.75
2023-03-16T04:29:18.326Z,100198.25
2023-03-16T04:31:47.772Z,100198.44
2023-03-16T04:34:15.436Z,100196.69
2023-03-16T04:36:42.216Z,100201.16
2023-03-16T04:39:10.413Z,100201.28
2023-03-16T04:41:39.494Z,100199.81
2023-03-16T04:44:08.567Z,100204.03
2023-03-16T04:46:36.034Z,100202.75
2023-03-16T04:49:02.722Z,100204.91
2023-03-16T04:51:31.698Z,100214.50
2023-03-16T04:54:00.898Z,100211.19
2023-03-16T04:56:30.226Z,100212.06
2023-03-16T04:59:00.184Z,100216.81
2023-03-16T05:01:29.391Z,100210.72
2023-03-16T05:03:57.511Z,100217.38
2023-03-16T05:06:25.103Z,100223.09
2023-03-16T05:08:51.660Z,100230.53
2023-03-16T05:11:18.227Z,100244.88
2023-03-16T05:13:44.819Z,100228.22
2023-03-16T05:16:11.582Z,100247.84
2023-03-16T05:18:38.222Z,100233.38
2023-03-16T05:21:05.117Z,100235.16
2023-03-16T05:23:34.323Z,100241.50
2023-03-16T05:26:01.164Z,100244.19
2023-03-16T05:28:28.603Z,100247.75
2023-03-16T05:30:56.540Z,100245.94
2023-03-16T05:33:25.661Z,100245.94
2023-03-16T05:35:54.752Z,100256.41
2023-03-16T05:38:21.431Z,100247.19
2023-03-16T05:40:53.059Z,100241.16
2023-03-16T05:43:23.127Z,100246.84
2023-03-16T05:45:49.703Z,100243.56
2023-03-16T05:48:16.280Z,100256.03
2023-03-16T05:50:47.488Z,100249.34
2023-03-16T05:53:15.296Z,100253.50
2023-03-16T05:55:44.686Z,100265.28
2023-03-16T05:58:11.898Z,100269.09
2023-03-16T06:00:40.637Z,100269.34
2023-03-16T06:03:07.262Z,100269.66
2023-03-16T06:05:33.833Z,100269.25
2023-03-16T06:08:00.504Z,100282.75
2023-03-16T06:10:27.944Z,100275.19
2023-03-16T06:12:58.463Z,100280.84
2023-03-16T06:15:30.538Z,100282.91
2023-03-16T06:17:59.473Z,100286.81
2023-03-16T06:20:26.363Z,100291.81
2023-03-16T06:22:55.497Z,100293.66
2023-03-16T06:25:22.058Z,100293.81
2023-03-16T06:27:49.575Z,100295.34
2023-03-16T06:30:18.704Z,100298.16
2023-03-16T06:32:51.108Z,100311.56
2023-03-16T06:35:17.837Z,100311.84
2023-03-16T06:37:46.504Z,100322.47
2023-03-16T06:40:17.901Z,100324.56
2023-03-16T06:43:15.065Z,100320.41
2023-03-16T06:45:45.998Z,100322.22
2023-03-16T06:48:12.589Z,100327.09
2023-03-16T06:50:41.754Z,100334.69
2023-03-16T06:53:11.533Z,100333.19
2023-03-16T06:55:40.535Z,100337.09
2023-03-16T06:58:07.887Z,100328.53
2023-03-16T07:00:34.524Z,100341.16
2023-03-16T07:03:02.069Z,100354.03
2023-03-16T07:05:28.790Z,100348.91
2023-03-16T07:07:55.453Z,100354.56
2023-03-16T07:10:25.204Z,100354.63
2023-03-16T07:12:51.961Z,100360.19
2023-03-16T07:15:19.078Z,100366.56
2023-03-16T07:17:52.903Z,100363.66
2023-03-16T07:20:21.102Z,100370.44
2023-03-16T07:22:48.703Z,100379.22
2023-03-16T07:25:17.510Z,100369.47
2023-03-16T07:27:45.548Z,100365.22
2023-03-16T07:30:15.198Z,100380.00
2023-03-16T07:32:44.564Z,100385.50
2023-03-16T07:35:11.669Z,100389.38
2023-03-16T07:37:38.542Z,100382.94
2023-03-16T07:40:09.380Z,100382.13
2023-03-16T07:42:38.591Z,100381.09
2023-03-16T07:45:06.345Z,100386.31
2023-03-16T07:47:33.789Z,100383.22
2023-03-16T07:50:02.779Z,100379.41
2023-03-16T07:52:29.413Z,100380.38
2023-03-16T07:55:00.627Z,100382.13
2023-03-16T07:57:27.219Z,100379.59
2023-03-16T07:59:53.805Z,100384.97
2023-03-16T08:02:21.710Z,100389.53
2023-03-16T08:04:51.576Z,100392.59
2023-03-16T08:07:20.610Z,100393.41
2023-03-16T08:09:47.255Z,100392.59
2023-03-16T08:12:16.005Z,100400.22
2023-03-16T08:14:46.413Z,100405.09
2023-03-16T08:17:12.960Z,100408.84
2023-03-16T08:20:03.468Z,100411.25
2023-03-16T08:22:30.948Z,100417.06
2023-03-16T08:24:57.554Z,100418.22
2023-03-16T08:27:29.564Z,100419.69
2023-03-16T08:29:56.165Z,100412.00
2023-03-16T08:32:22.875Z,100425.00
2023-03-16T08:34:50.126Z,100422.59
2023-03-16T08:37:16.643Z,100424.22
2023-03-16T08:39:51.482Z,100419.59
2023-03-16T08:42:19.816Z,100422.31
2023-03-16T08:44:49.349Z,100421.09
2023-03-16T08:47:16.120Z,100420.97
2023-03-16T08:49:45.096Z,100427.34
2023-03-16T08:52:16.467Z,100420.00
2023-03-16T08:54:56.153Z,100427.94
2023-03-16T08:57:28.481Z,100426.25
2023-03-16T08:59:55.093Z,100428.44
2023-03-16T09:02:26.699Z,100425.69
2023-03-16T09:04:57.086Z,100428.97
2023-03-16T09:07:26.155Z,100424.84
2023-03-16T09:09:55.185Z,100440.31
2023-03-16T09:12:22.407Z,100439.34
2023-03-16T09:14:49.282Z,100441.28
2023-03-16T09:17:18.707Z,100439.81
2023-03-16T09:19:51.491Z,100438.78
2023-03-16T09:22:23.139Z,100449.13
2023-03-16T09:24:50.166Z,100439.03
2023-03-16T09:27:17.695Z,100432.81
2023-03-16T09:29:46.761Z,100438.03
2023-03-16T09:32:16.793Z,100434.13
2023-03-16T09:34:44.807Z,100440.25
2023-03-16T09:37:13.651Z,100432.28
2023-03-16T09:40:06.499Z,100437.19
2023-03-16T09:43:01.102Z,100442.75
2023-03-16T09:46:15.406Z,100452.75
2023-03-16T09:48:42.368Z,100441.22
2023-03-16T09:51:31.289Z,100444.94
2023-03-16T09:54:02.276Z,100450.31
2023-03-16T09:56:43.276Z,100453.84
2023-03-16T09:59:15.308Z,100451.31
2023-03-16T10:02:06.178Z,100461.44
2023-03-16T10:04:50.567Z,100463.09
2023-03-16T10:07:36.085Z,100441.97
2023-03-16T10:10:18.622Z,100447.59
2023-03-16T10:12:53.076Z,100451.44
2023-03-16T10:15:27.189Z,100445.84
2023-03-16T10:18:09.188Z,100455.06
2023-03-16T10:20:42.014Z,100443.16
2023-03-16T10:23:21.392Z,100450.16
2023-03-16T10:25:55.916Z,100453.19
2023-03-16T10:28:29.026Z,100441.69
2023-03-16T10:30:58.592Z,100446.94
2023-03-16T10:33:30.068Z,100454.44
2023-03-16T10:36:15.668Z,100445.97
2023-03-16T10:38:59.718Z,100448.38
2023-03-16T10:41:29.382Z,100447.31
2023-03-16T10:44:07.515Z,100441.97
2023-03-16T10:46:53.466Z,100444.44
2023-03-16T10:49:30.231Z,100443.72
2023-03-16T10:52:00.417Z,100439.56
2023-03-16T10:54:37.575Z,100437.25
2023-03-16T10:57:31.775Z,100437.22
2023-03-16T11:00:14.945Z,100446.31
2023-03-16T11:02:44.779Z,100439.28
2023-03-16T11:05:34.762Z,100448.13
2023-03-16T11:08:19.512Z,100437.25
2023-03-16T11:10:56.156Z,100434.72
2023-03-16T11:13:28.362Z,100441.56
2023-03-16T11:16:03.563Z,100437.94
2023-03-16T11:18:31.294Z,100439.00
2023-03-16T11:21:13.092Z,100423.69
2023-03-16T11:23:48.416Z,100432.72
2023-03-16T11:26:21.274Z,100427.19
2023-03-16T11:28:54.582Z,100424.34
2023-03-16T11:31:33.112Z,100423.03
2023-03-16T11:34:02.855Z,100422.25
2023-03-16T11:36:44.440Z,100413.75
2023-03-16T11:39:54.949Z,100420.06
2023-03-16T11:42:25.202Z,100406.91
2023-03-16T11:45:01.515Z,100409.78
2023-03-16T11:47:59.923Z,100413.84
2023-03-16T11:51:06.444Z,100394.31
2023-03-16T11:53:57.646Z,100398.75
2023-03-16T11:56:28.364Z,100395.56
2023-03-16T11:59:11.067Z,100411.66
2023-03-16T12:02:01.065Z,100391.25
2023-03-16T12:04:45.055Z,100400.81
2023-03-16T12:07:44.373Z,100402.22
2023-03-16T12:10:32.944Z,100403.81
2023-03-16T12:13:21.732Z,100404.88
2023-03-16T12:15:59.783Z,100402.91
2023-03-16T12:18:36.436Z,100403.25
2023-03-16T12:21:09.483Z,100396.59
2023-03-16T12:23:59.735Z,100390.38
2023-03-16T12:26:30.322Z,100393.88
2023-03-16T12:29:00.682Z,100396.06
2023-03-16T12:31:44.135Z,100390.47
2023-03-16T12:34:24.293Z,100394.41
2023-03-16T12:37:09.621Z,100397.16
2023-03-16T12:39:41.511Z,100399.72
2023-03-16T12:42:36.445Z,100397.59
2023-03-16T12:45:04.507Z,100398.13
2023-03-16T12:48:06.449Z,100398.78
2023-03-16T12:50:33.129Z,100391.25
2023-03-16T12:52:59.760Z,100387.34
2023-03-16T12:55:39.651Z,100390.16
2023-03-16T12:58:08.692Z,100389.47
2023-03-16T13:00:37.322Z,100395.66
2023-03-16T13:03:06.391Z,100398.06
2023-03-16T13:05:34.705Z,100381.94
2023-03-16T13:08:15.988Z,100396.25
2023-03-16T13:11:01.432Z,100404.19
2023-03-16T13:13:30.507Z,100392.69
2023-03-16T13:16:05.963Z,100411.03
2023-03-16T13:18:44.775Z,100390.81
2023-03-16T13:21:22.983Z,100388.84
2023-03-16T13:24:00.189Z,100389.59
2023-03-16T13:26:47.492Z,100384.69
2023-03-16T13:29:38.939Z,100383.53
2023-03-16T13:32:19.275Z,100387.56
2023-03-16T13:34:53.670Z,100395.66
2023-03-16T13:37:24.384Z,100401.25
2023-03-16T13:39:58.498Z,100393.13
2023-03-16T13:42:28.685Z,100386.81
2023-03-16T13:44:59.640Z,100402.31
2023-03-16T13:47:27.742Z,100392.53
2023-03-16T13:49:59.348Z,100393.81
2023-03-16T13:52:28.226Z,100388.97
2023-03-16T13:54:58.547Z,100388.09
2023-03-16T13:57:31.051Z,100389.00
2023-03-16T14:00:21.744Z,100394.75
2023-03-16T14:02:56.297Z,100396.41
2023-03-16T14:05:26.101Z,100384.31
2023-03-16T14:07:56.621Z,100382.72
2023-03-16T14:10:34.212Z,100391.03
2023-03-16T14:13:25.536Z,100398.97
2023-03-16T14:15:58.050Z,100393.03
2023-03-16T14:18:36.960Z,100396.31
2023-03-16T14:21:27.319Z,100394.66
2023-03-16T14:23:58.504Z,100396.50
2023-03-16T14:26:25.265Z,100400.69
2023-03-16T14:29:18.426Z,100396.84
2023-03-16T14:31:47.273Z,100402.16
2023-03-16T14:34:29.158Z,100404.47
2023-03-16T14:37:34.406Z,100413.88
2023-03-16T14:40:07.626Z,100409.34
2023-03-16T14:42:35.429Z,100405.03
2023-03-16T14:45:06.653Z,100414.47
2023-03-16T14:47:41.595Z,100413.06
2023-03-16T14:50:14.463Z,100417.75
2023-03-16T14:52:44.553Z,100415.44
2023-03-16T14:55:17.014Z,100415.06
2023-03-16T14:57:46.236Z,100429.13
2023-03-16T15:00:15.535Z,100420.97
2023-03-16T15:02:44.936Z,100422.31
2023-03-16T15:05:22.460Z,100422.47
2023-03-16T15:07:58.163Z,100421.44
2023-03-16T15:10:30.279Z,100420.03
2023-03-16T15:13:13.157Z,100416.88
2023-03-16T15:15:44.078Z,100423.94
2023-03-16T15:18:13.161Z,100429.03
2023-03-16T15:20:45.522Z,100429.72
2023-03-16T15:23:17.082Z,100421.50
2023-03-16T15:25:45.003Z,100423.69
2023-03-16T15:28:18.975Z,100430.34
2023-03-16T15:30:50.947Z,100423.91
2023-03-16T15:33:17.711Z,100435.56
2023-03-16T15:35:51.382Z,100441.31
2023-03-16T15:38:28.271Z,100431.72
2023-03-16T15:40:55.170Z,100441.72
2023-03-16T15:43:27.308Z,100443.63
2023-03-16T15:46:00.406Z,100459.81
2023-03-16T15:48:27.130Z,100453.53
2023-03-16T15:51:04.268Z,100458.84
2023-03-16T15:53:41.662Z,100454.13
2023-03-16T15:56:16.576Z,100452.56
2023-03-16T15:58:47.936Z,100460.75
2023-03-16T16:01:30.751Z,100465.38
2023-03-16T16:03:58.162Z,100460.00
2023-03-16T16:06:25.015Z,100463.13
2023-03-16T16:08:51.579Z,100466.22
2023-03-16T16:11:23.998Z,100471.03
2023-03-16T16:13:51.745Z,100475.41
2023-03-16T16:16:19.491Z,100475.78
2023-03-16T16:18:47.525Z,100480.16
2023-03-16T16:21:23.333Z,100486.06
2023-03-16T16:23:54.071Z,100485.56
2023-03-16T16:26:52.837Z,100496.97
2023-03-16T16:29:27.434Z,100505.25
2023-03-16T16:31:54.366Z,100505.22
2023-03-16T16:34:24.793Z,100505.31
2023-03-16T16:36:54.959Z,100516.69
2023-03-16T16:39:22.320Z,100514.59
2023-03-16T16:41:54.934Z,100514.81
2023-03-16T16:44:27.719Z,100522.69
2023-03-16T16:46:59.653Z,100536.00
2023-03-16T16:49:31.056Z,100533.97
2023-03-16T16:51:58.691Z,100524.25
2023-03-16T16:54:29.237Z,100532.88
2023-03-16T16:56:59.820Z,100537.03
2023-03-16T16:59:31.461Z,100537.16
2023-03-16T17:02:00.280Z,100544.72
2023-03-16T17:04:31.280Z,100553.03
2023-03-16T17:07:00.843Z,100549.34
2023-03-16T17:09:28.647Z,100555.06
2023-03-16T17:11:58.733Z,100552.19
2023-03-16T17:14:28.235Z,100553.41
2023-03-16T17:16:55.818Z,100565.19
2023-03-16T17:19:27.831Z,100570.19
2023-03-16T17:21:57.567Z,100571.22
2023-03-16T17:24:25.052Z,100567.94
2023-03-16T17:27:04.632Z,100568.06
2023-03-16T17:29:36.778Z,100569.00
2023-03-16T17:32:14.989Z,100578.13
2023-03-16T17:34:43.907Z,100586.38
2023-03-16T17:37:13.305Z,100582.72
2023-03-16T17:39:42.755Z,100587.25
2023-03-16T17:42:22.525Z,100586.19
2023-03-16T17:44:51.631Z,100591.94
2023-03-16T17:47:24.254Z,100587.19
2023-03-16T17:49:51.507Z,100589.69
2023-03-16T17:52:20.881Z,100591.81
2023-03-16T17:54:48.947Z,100595.56
2023-03-16T17:57:47.227Z,100593.00
2023-03-16T18:00:31.881Z,100590.34
2023-03-16T18:02:58.740Z,100593.97
2023-03-16T18:05:38.173Z,100597.16
2023-03-16T18:08:22.326Z,100600.47
2023-03-16T18:10:52.786Z,100598.09
2023-03-16T18:13:37.941Z,100610.69
2023-03-16T18:16:07.880Z,100604.44
2023-03-16T18:18:37.870Z,100611.53
2023-03-16T18:21:12.227Z,100609.91
2023-03-16T18:23:39.720Z,100615.50
2023-03-16T18:26:07.863Z,100613.00
2023-03-16T18:28:34.999Z,100621.56
2023-03-16T18:31:05.624Z,100617.91
2023-03-16T18:33:39.251Z,100625.22
2023-03-16T18:36:14.062Z,100619.31
2023-03-16T18:38:43.622Z,100622.56
2023-03-16T18:41:18.109Z,100627.63
2023-03-16T18:43:45.179Z,100619.44
2023-03-16T18:46:24.248Z,100634.59
2023-03-16T18:48:53.122Z,100635.50
2023-03-16T18:51:23.691Z,100640.63
2023-03-16T18:53:53.385Z,100642.56
2023-03-16T18:56:25.756Z,100647.50
2023-03-16T18:58:53.697Z,100653.94
2023-03-16T19:01:32.568Z,100652.88
2023-03-16T19:04:02.316Z,100669.03
2023-03-16T19:06:31.964Z,100683.69
2023-03-16T19:09:05.132Z,100700.78
2023-03-16T19:11:33.732Z,100700.91
2023-03-16T19:14:02.428Z,100705.16
2023-03-16T19:16:31.301Z,100709.94
2023-03-16T19:18:57.920Z,100710.31
2023-03-16T19:21:29.669Z,100710.34
2023-03-16T19:24:00.479Z,100722.19
2023-03-16T19:26:34.785Z,100724.09
2023-03-16T19:29:02.385Z,100722.91
2023-03-16T19:31:33.385Z,100734.66
2023-03-16T19:34:00.069Z,100728.91
2023-03-16T19:36:32.279Z,100737.38
2023-03-16T19:38:59.059Z,100743.34
2023-03-16T19:41:32.385Z,100747.78
2023-03-16T19:44:14.991Z,100754.72
2023-03-16T19:46:44.789Z,100751.47
2023-03-16T19:49:22.723Z,100761.06
2023-03-16T19:51:51.321Z,100757.50
2023-03-16T19:54:39.453Z,100761.16
2023-03-16T19:57:13.822Z,100760.91
2023-03-16T19:59:48.213Z,100768.00
2023-03-16T20:02:27.216Z,100771.44
2023-03-16T20:04:54.828Z,100774.09
2023-03-16T20:07:22.229Z,100787.47
2023-03-16T20:09:48.948Z,100777.72
2023-03-16T20:12:24.672Z,100780.34
2023-03-16T20:14:52.138Z,100779.47
2023-03-16T20:17:24.693Z,100786.31
2023-03-16T20:19:51.788Z,100786.44
2023-03-16T20:22:27.379Z,100786.47
2023-03-16T20:24:58.121Z,100785.78
2023-03-16T20:27:25.508Z,100788.06
2023-03-16T20:29:52.289Z,100794.44
2023-03-16T20:32:21.988Z,100792.50
2023-03-16T20:34:50.402Z,100795.84
2023-03-16T20:37:19.858Z,100790.13
2023-03-16T20:39:46.416Z,100797.03
2023-03-16T20:42:20.464Z,100798.78
2023-03-16T20:44:47.588Z,100805.56
2023-03-16T20:47:22.668Z,100797.44
2023-03-16T20:49:51.556Z,100799.66
2023-03-16T20:52:25.244Z,100800.16
2023-03-16T20:54:55.366Z,100796.63
2023-03-16T20:57:24.812Z,100792.66
2023-03-16T20:59:55.340Z,100797.69
2023-03-16T21:02:29.484Z,100800.84
2023-03-16T21:04:57.813Z,100801.09
2023-03-16T21:07:24.700Z,100799.34
2023-03-16T21:09:53.863Z,100803.72
2023-03-16T21:12:27.861Z,100802.59
2023-03-16T21:14:56.336Z,100810.09
2023-03-16T21:17:31.225Z,100809.53
2023-03-16T21:20:00.868Z,100816.00
2023-03-16T21:22:30.861Z,100828.16
2023-03-16T21:24:59.792Z,100822.91
2023-03-16T21:27:31.939Z,100822.59
2023-03-16T21:30:10.397Z,100831.69
2023-03-16T21:32:39.832Z,100823.22
2023-03-16T21:35:16.367Z,100822.22
2023-03-16T21:37:45.423Z,100829.59
2023-03-16T21:40:22.515Z,100830.03
2023-03-16T21:42:50.305Z,100833.66
2023-03-16T21:45:19.693Z,100834.94
2023-03-16T21:47:47.081Z,100826.88
2023-03-16T21:50:27.875Z,100826.03
2023-03-16T21:52:56.926Z,100830.69
2023-03-16T21:55:31.511Z,100832.44
2023-03-16T21:58:03.106Z,100833.25
2023-03-16T22:00:32.118Z,100833.00
2023-03-16T22:03:00.284Z,100829.75
2023-03-16T22:05:35.306Z,100837.22
2023-03-16T22:08:22.304Z,100834.47
2023-03-16T22:10:49.787Z,100836.75
2023-03-16T22:13:19.028Z,100838.84
2023-03-16T22:15:50.623Z,100843.13
2023-03-16T22:18:38.690Z,100843.53
2023-03-16T22:21:35.355Z,100835.84
2023-03-16T22:24:07.170Z,100838.78
2023-03-16T22:26:37.363Z,100841.44
2023-03-16T22:29:18.703Z,100833.97
2023-03-16T22:31:48.838Z,100834.59
2023-03-16T22:34:26.782Z,100833.53
2023-03-16T22:36:54.204Z,100839.84
2023-03-16T22:39:20.843Z,100835.47
2023-03-16T22:41:47.740Z,100841.25
2023-03-16T22:44:22.787Z,100834.56
2023-03-16T22:47:22.802Z,100841.25
2023-03-16T22:49:49.795Z,100848.28
2023-03-16T22:52:21.771Z,100847.31
2023-03-16T22:54:48.493Z,100850.47
2023-03-16T22:57:18.736Z,100853.53
2023-03-16T22:59:50.309Z,100845.78
2023-03-16T23:02:22.253Z,100849.41
2023-03-16T23:04:48.868Z,100842.13
2023-03-16T23:07:15.756Z,100846.63
2023-03-16T23:09:42.649Z,100848.97
2023-03-16T23:12:21.672Z,100851.59
2023-03-16T23:14:48.751Z,100857.19
2023-03-16T23:17:20.802Z,100851.69
2023-03-16T23:19:48.244Z,100859.47
2023-03-16T23:22:15.301Z,100861.09
2023-03-16T23:24:42.455Z,100862.09
2023-03-16T23:27:18.224Z,100857.00
2023-03-16T23:29:47.500Z,100858.34
2023-03-16T23:32:17.438Z,100859.59
2023-03-16T23:34:44.132Z,100862.75
2023-03-16T23:37:13.284Z,100863.63
2023-03-16T23:39:40.023Z,100862.50
2023-03-16T23:42:07.184Z,100864.13
2023-03-16T23:44:36.447Z,100858.88
2023-03-16T23:47:03.005Z,100863.47
2023-03-16T23:49:32.965Z,100869.28
2023-03-16T23:52:01.450Z,100873.97
2023-03-16T23:54:31.867Z,100877.34
2023-03-16T23:57:00.947Z,100875.22
2023-03-16T23:59:27.832Z,100870.31
